createdAt,value
2023-02-23T00:02:08.640Z,6.40
2023-02-23T00:04:36.329Z,6.40
2023-02-23T00:07:03.875Z,6.40
2023-02-23T00:09:35.544Z,6.30
2023-02-23T00:12:09.014Z,6.40
2023-02-23T00:14:38.117Z,6.40
2023-02-23T00:17:14.499Z,6.40
2023-02-23T00:19:44.201Z,6.40
2023-02-23T00:22:13.031Z,6.40
2023-02-23T00:24:42.531Z,6.40
2023-02-23T00:27:09.825Z,6.40
2023-02-23T00:29:39.986Z,6.50
2023-02-23T00:32:07.782Z,6.50
2023-02-23T00:34:37.872Z,6.50
2023-02-23T00:37:06.187Z,6.50
2023-02-23T00:39:33.433Z,6.50
2023-02-23T00:42:03.455Z,6.50
2023-02-23T00:44:32.393Z,6.40
2023-02-23T00:46:59.522Z,6.20
2023-02-23T00:49:28.117Z,6.30
2023-02-23T00:51:55.694Z,6.20
2023-02-23T00:54:23.965Z,6.10
2023-02-23T00:56:51.614Z,6.20
2023-02-23T00:59:20.272Z,6.20
2023-02-23T01:01:48.731Z,6.10
2023-02-23T01:04:17.001Z,5.90
2023-02-23T01:06:44.556Z,6.00
2023-02-23T01:09:22.469Z,6.10
2023-02-23T01:11:49.399Z,6.10
2023-02-23T01:14:16.177Z,6.10
2023-02-23T01:16:44.244Z,6.00
2023-02-23T01:19:13.334Z,6.10
2023-02-23T01:21:42.411Z,6.00
2023-02-23T01:24:11.826Z,6.00
2023-02-23T01:26:44.890Z,6.00
2023-02-23T01:29:16.498Z,6.00
2023-02-23T01:31:49.563Z,6.00
2023-02-23T01:34:17.701Z,5.90
2023-02-23T01:36:45.897Z,5.90
2023-02-23T01:39:18.517Z,5.90
2023-02-23T01:41:45.762Z,5.90
2023-02-23T01:44:15.907Z,6.00
2023-02-23T01:46:46.015Z,6.00
2023-02-23T01:49:23.104Z,6.00
2023-02-23T01:52:00.113Z,5.90
2023-02-23T01:54:40.024Z,5.90
2023-02-23T01:57:14.248Z,5.90
2023-02-23T01:59:49.183Z,5.80
2023-02-23T02:02:27.617Z,5.80
2023-02-23T02:04:57.464Z,5.70
2023-02-23T02:07:29.594Z,5.70
2023-02-23T02:10:11.506Z,5.60
2023-02-23T02:12:47.430Z,5.60
2023-02-23T02:15:18.393Z,5.60
2023-02-23T02:18:25.660Z,5.60
2023-02-23T02:21:22.621Z,5.50
2023-02-23T02:24:00.694Z,5.50
2023-02-23T02:26:46.652Z,5.40
2023-02-23T02:29:39.700Z,5.40
2023-02-23T02:32:39.347Z,5.30
2023-02-23T02:35:38.021Z,5.30
2023-02-23T02:38:32.010Z,5.20
2023-02-23T02:41:15.549Z,5.20
2023-02-23T02:43:54.699Z,5.20
2023-02-23T02:46:34.917Z,5.20
2023-02-23T02:49:09.703Z,5.20
2023-02-23T02:51:48.918Z,5.20
2023-02-23T02:54:36.444Z,5.20
2023-02-23T02:57:04.656Z,5.20
2023-02-23T02:59:50.996Z,5.20
2023-02-23T03:02:41.344Z,5.20
2023-02-23T03:05:38.107Z,5.20
2023-02-23T03:08:38.528Z,5.10
2023-02-23T03:11:33.020Z,5.00
2023-02-23T03:14:49.101Z,5.00
2023-02-23T03:18:04.613Z,4.90
2023-02-23T03:20:52.736Z,4.90
2023-02-23T03:23:47.269Z,4.80
2023-02-23T03:27:20.284Z,4.80
2023-02-23T03:30:26.302Z,4.70
2023-02-23T03:33:16.958Z,4.60
2023-02-23T03:36:07.747Z,4.60
2023-02-23T03:39:10.473Z,4.60
2023-02-23T03:41:59.717Z,4.50
2023-02-23T03:44:54.912Z,4.50
2023-02-23T03:47:45.812Z,4.50
2023-02-23T03:50:52.431Z,4.50
2023-02-23T03:53:46.144Z,4.50
2023-02-23T03:56:35.229Z,4.50
2023-02-23T03:59:22.708Z,4.40
2023-02-23T04:02:10.810Z,4.40
2023-02-23T04:04:57.386Z,4.50
2023-02-23T04:07:43.178Z,4.50
2023-02-23T04:10:29.921Z,4.60
2023-02-23T04:13:22.696Z,4.60
2023-02-23T04:15:56.256Z,4.60
2023-02-23T04:18:34.145Z,4.60
2023-02-23T04:21:02.305Z,4.60
2023-02-23T04:23:29.513Z,4.50
2023-02-23T04:25:56.974Z,4.40
2023-02-23T04:28:27.974Z,4.40
2023-02-23T04:30:54.933Z,4.50
2023-02-23T04:33:24.892Z,4.50
2023-02-23T04:35:54.021Z,4.50
2023-02-23T04:38:22.261Z,4.60
2023-02-23T04:40:49.516Z,4.60
2023-02-23T04:43:16.328Z,4.70
2023-02-23T04:45:44.676Z,4.80
2023-02-23T04:48:11.459Z,4.80
2023-02-23T04:50:38.484Z,4.80
2023-02-23T04:53:05.570Z,4.90
2023-02-23T04:55:32.887Z,4.80
2023-02-23T04:58:03.127Z,4.80
2023-02-23T05:00:31.485Z,4.80
2023-02-23T05:02:58.355Z,4.70
2023-02-23T05:05:25.468Z,4.70
2023-02-23T05:07:53.606Z,4.70
2023-02-23T05:10:20.611Z,4.70
2023-02-23T05:12:47.664Z,4.70
2023-02-23T05:15:14.829Z,4.70
2023-02-23T05:17:42.002Z,4.70
2023-02-23T05:20:11.324Z,4.70
2023-02-23T05:22:38.252Z,4.70
2023-02-23T05:25:06.314Z,4.70
2023-02-23T05:27:33.269Z,4.70
2023-02-23T05:30:01.142Z,4.70
2023-02-23T05:32:28.581Z,4.70
2023-02-23T05:34:55.511Z,4.70
2023-02-23T05:37:22.364Z,4.70
2023-02-23T05:39:49.217Z,4.80
2023-02-23T05:42:16.114Z,4.80
2023-02-23T05:44:42.929Z,4.80
2023-02-23T05:47:10.763Z,4.90
2023-02-23T05:49:38.483Z,4.90
2023-02-23T05:52:05.488Z,4.90
2023-02-23T05:54:32.364Z,4.90
2023-02-23T05:57:01.663Z,5.00
2023-02-23T05:59:28.614Z,5.00
2023-02-23T06:01:55.799Z,5.00
2023-02-23T06:04:23.320Z,5.00
2023-02-23T06:06:50.320Z,5.00
2023-02-23T06:09:17.171Z,5.00
2023-02-23T06:11:44.562Z,5.00
2023-02-23T06:14:11.624Z,5.00
2023-02-23T06:16:39.341Z,5.00
2023-02-23T06:19:06.291Z,5.00
2023-02-23T06:21:33.693Z,5.10
2023-02-23T06:24:00.997Z,5.10
2023-02-23T06:26:28.595Z,5.10
2023-02-23T06:28:55.927Z,5.10
2023-02-23T06:31:23.211Z,5.20
2023-02-23T06:33:50.859Z,5.20
2023-02-23T06:36:17.715Z,5.20
2023-02-23T06:38:45.027Z,5.20
2023-02-23T06:41:12.959Z,5.20
2023-02-23T06:43:39.776Z,5.30
2023-02-23T06:46:06.875Z,5.30
2023-02-23T06:48:33.755Z,5.40
2023-02-23T06:51:00.593Z,5.40
2023-02-23T06:53:27.959Z,5.30
2023-02-23T06:55:54.800Z,5.40
2023-02-23T06:58:21.584Z,5.40
2023-02-23T07:00:48.554Z,5.40
2023-02-23T07:03:15.417Z,5.50
2023-02-23T07:05:42.174Z,5.50
2023-02-23T07:08:09.012Z,5.50
2023-02-23T07:10:35.780Z,5.60
2023-02-23T07:13:02.586Z,5.60
2023-02-23T07:15:29.641Z,5.70
2023-02-23T07:17:57.449Z,5.70
2023-02-23T07:20:24.325Z,5.80
2023-02-23T07:22:51.995Z,5.80
2023-02-23T07:25:18.818Z,5.90
2023-02-23T07:27:45.631Z,5.90
2023-02-23T07:30:13.716Z,6.00
2023-02-23T07:32:41.341Z,6.00
2023-02-23T07:35:08.626Z,6.00
2023-02-23T07:37:35.439Z,6.10
2023-02-23T07:40:02.955Z,6.10
2023-02-23T07:42:29.701Z,6.10
2023-02-23T07:44:56.541Z,6.10
2023-02-23T07:47:30.732Z,6.20
2023-02-23T07:49:59.711Z,6.20
2023-02-23T07:52:26.736Z,6.20
2023-02-23T07:54:54.134Z,6.30
2023-02-23T07:57:22.865Z,6.30
2023-02-23T07:59:51.555Z,6.40
2023-02-23T08:02:18.515Z,6.40
2023-02-23T08:04:45.394Z,6.40
2023-02-23T08:07:12.144Z,6.50
2023-02-23T08:09:38.994Z,6.60
2023-02-23T08:12:06.138Z,6.60
2023-02-23T08:14:32.900Z,6.70
2023-02-23T08:17:01.509Z,6.70
2023-02-23T08:19:29.379Z,6.70
2023-02-23T08:21:56.824Z,6.70
2023-02-23T08:24:24.621Z,6.80
2023-02-23T08:26:51.474Z,6.90
2023-02-23T08:29:19.044Z,7.00
2023-02-23T08:31:45.954Z,7.10
2023-02-23T08:34:14.087Z,7.20
2023-02-23T08:36:40.912Z,7.30
2023-02-23T08:39:09.948Z,7.40
2023-02-23T08:41:36.880Z,7.60
2023-02-23T08:44:03.891Z,7.70
2023-02-23T08:46:31.003Z,7.80
2023-02-23T08:48:58.075Z,7.90
2023-02-23T08:51:25.484Z,8.00
2023-02-23T08:53:52.518Z,8.20
2023-02-23T08:56:19.546Z,8.30
2023-02-23T08:58:46.314Z,8.50
2023-02-23T09:01:19.737Z,8.60
2023-02-23T09:03:46.741Z,8.70
2023-02-23T09:06:19.132Z,8.80
2023-02-23T09:08:46.320Z,8.90
2023-02-23T09:11:13.104Z,9.00
2023-02-23T09:13:39.906Z,9.10
2023-02-23T09:16:10.343Z,9.20
2023-02-23T09:18:37.800Z,9.20
2023-02-23T09:21:08.458Z,9.20
2023-02-23T09:23:36.334Z,9.30
2023-02-23T09:26:08.345Z,9.40
2023-02-23T09:28:36.249Z,9.50
2023-02-23T09:31:10.057Z,9.50
2023-02-23T09:33:37.155Z,9.60
2023-02-23T09:36:18.944Z,9.60
2023-02-23T09:38:48.800Z,9.60
2023-02-23T09:42:17.184Z,9.60
2023-02-23T09:45:17.611Z,9.70
2023-02-23T09:47:54.095Z,10.00
2023-02-23T09:50:27.234Z,9.80
2023-02-23T09:53:26.695Z,9.90
2023-02-23T09:55:57.379Z,10.00
2023-02-23T09:58:31.364Z,9.90
2023-02-23T10:01:25.358Z,10.10
2023-02-23T10:04:21.136Z,10.20
2023-02-23T10:07:22.957Z,10.00
2023-02-23T10:10:14.238Z,10.10
2023-02-23T10:13:34.088Z,9.90
2023-02-23T10:16:22.845Z,9.90
2023-02-23T10:19:05.707Z,9.90
2023-02-23T10:21:45.945Z,9.90
2023-02-23T10:24:56.975Z,10.00
2023-02-23T10:27:33.179Z,10.10
2023-02-23T10:30:02.738Z,10.10
2023-02-23T10:32:49.269Z,10.10
2023-02-23T10:35:20.975Z,10.10
2023-02-23T10:37:49.357Z,10.20
2023-02-23T10:40:23.319Z,10.10
2023-02-23T10:42:54.669Z,10.10
2023-02-23T10:45:25.946Z,10.20
2023-02-23T10:48:04.764Z,10.30
2023-02-23T10:50:33.602Z,10.20
2023-02-23T10:53:18.733Z,10.50
2023-02-23T10:55:48.781Z,10.50
2023-02-23T10:58:19.539Z,10.60
2023-02-23T11:00:59.457Z,10.80
2023-02-23T11:03:57.713Z,10.90
2023-02-23T11:06:39.507Z,11.10
2023-02-23T11:09:45.843Z,11.10
2023-02-23T11:12:25.672Z,11.20
2023-02-23T11:14:59.048Z,11.30
2023-02-23T11:17:35.838Z,11.40
2023-02-23T11:20:26.498Z,11.40
2023-02-23T11:22:58.980Z,11.40
2023-02-23T11:25:33.657Z,11.40
2023-02-23T11:28:02.485Z,11.10
2023-02-23T11:30:43.432Z,10.90
2023-02-23T11:33:20.387Z,10.90
2023-02-23T11:35:47.337Z,10.90
2023-02-23T11:38:29.710Z,10.90
2023-02-23T11:41:07.408Z,10.90
2023-02-23T11:43:36.011Z,10.90
2023-02-23T11:46:04.052Z,11.10
2023-02-23T11:48:55.112Z,11.40
2023-02-23T11:51:54.339Z,11.70
2023-02-23T11:54:29.033Z,12.00
2023-02-23T11:56:57.908Z,12.10
2023-02-23T11:59:31.554Z,12.20
2023-02-23T12:02:30.770Z,12.10
2023-02-23T12:05:16.995Z,12.10
2023-02-23T12:07:50.454Z,12.30
2023-02-23T12:10:38.681Z,12.40
2023-02-23T12:13:12.095Z,12.50
2023-02-23T12:16:17.001Z,12.60
2023-02-23T12:19:24.816Z,12.40
2023-02-23T12:22:02.877Z,12.50
2023-02-23T12:24:44.528Z,12.30
2023-02-23T12:27:45.320Z,12.40
2023-02-23T12:30:21.045Z,12.50
2023-02-23T12:33:12.339Z,12.50
2023-02-23T12:35:45.510Z,12.40
2023-02-23T12:38:27.829Z,12.50
2023-02-23T12:41:34.035Z,12.40
2023-02-23T12:44:38.230Z,12.50
2023-02-23T12:47:20.445Z,12.70
2023-02-23T12:49:57.448Z,12.80
2023-02-23T12:52:36.837Z,12.90
2023-02-23T12:55:10.207Z,12.80
2023-02-23T12:58:32.667Z,12.70
2023-02-23T13:01:02.146Z,12.80
2023-02-23T13:04:01.318Z,13.00
2023-02-23T13:06:51.402Z,12.80
2023-02-23T13:09:36.035Z,13.00
2023-02-23T13:12:37.249Z,13.00
2023-02-23T13:15:35.794Z,12.90
2023-02-23T13:18:11.950Z,12.80
2023-02-23T13:20:44.902Z,12.90
2023-02-23T13:23:29.763Z,12.80
2023-02-23T13:26:27.233Z,12.80
2023-02-23T13:29:08.681Z,13.10
2023-02-23T13:31:41.771Z,13.30
2023-02-23T13:34:32.275Z,13.20
2023-02-23T13:37:06.079Z,13.10
2023-02-23T13:39:59.650Z,13.30
2023-02-23T13:42:48.862Z,13.00
2023-02-23T13:45:42.622Z,12.80
2023-02-23T13:49:01.749Z,12.90
2023-02-23T13:51:50.307Z,12.70
2023-02-23T13:54:22.862Z,12.90
2023-02-23T13:56:56.762Z,12.90
2023-02-23T13:59:33.124Z,13.00
2023-02-23T14:02:28.896Z,13.00
2023-02-23T14:05:30.748Z,12.90
2023-02-23T14:08:06.243Z,12.90
2023-02-23T14:10:41.350Z,12.70
2023-02-23T14:13:15.175Z,12.50
2023-02-23T14:15:53.656Z,12.60
2023-02-23T14:18:27.920Z,12.70
2023-02-23T14:21:20.114Z,12.40
2023-02-23T14:24:15.081Z,12.50
2023-02-23T14:26:47.840Z,12.40
2023-02-23T14:29:26.271Z,12.40
2023-02-23T14:32:17.990Z,12.40
2023-02-23T14:34:57.051Z,12.40
2023-02-23T14:37:39.398Z,12.50
2023-02-23T14:40:32.484Z,12.40
2023-02-23T14:43:02.916Z,12.20
2023-02-23T14:45:38.238Z,12.10
2023-02-23T14:48:13.497Z,12.30
2023-02-23T14:50:42.068Z,12.30
2023-02-23T14:53:22.305Z,12.20
2023-02-23T14:55:50.734Z,12.10
2023-02-23T14:58:35.721Z,12.20
2023-02-23T15:01:04.085Z,12.30
2023-02-23T15:03:31.215Z,12.30
2023-02-23T15:06:01.601Z,12.20
2023-02-23T15:08:31.445Z,12.10
2023-02-23T15:11:13.210Z,11.90
2023-02-23T15:13:51.221Z,11.80
2023-02-23T15:16:35.172Z,11.70
2023-02-23T15:19:04.396Z,11.80
2023-02-23T15:21:31.533Z,11.90
2023-02-23T15:24:12.870Z,11.80
2023-02-23T15:26:41.274Z,11.80
2023-02-23T15:29:11.706Z,11.80
2023-02-23T15:31:41.121Z,11.80
2023-02-23T15:34:12.662Z,11.80
2023-02-23T15:36:41.541Z,11.80
2023-02-23T15:39:18.444Z,11.70
2023-02-23T15:41:49.412Z,11.60
2023-02-23T15:44:38.321Z,11.60
2023-02-23T15:47:28.573Z,11.60
2023-02-23T15:50:10.048Z,11.40
2023-02-23T15:52:48.058Z,11.40
2023-02-23T15:55:24.982Z,11.30
2023-02-23T15:58:01.901Z,11.30
2023-02-23T16:00:42.825Z,11.20
2023-02-23T16:03:31.742Z,11.10
2023-02-23T16:06:21.633Z,11.10
2023-02-23T16:09:34.713Z,11.00
2023-02-23T16:12:15.047Z,10.80
2023-02-23T16:14:54.054Z,10.90
2023-02-23T16:17:48.627Z,10.90
2023-02-23T16:20:29.051Z,10.90
2023-02-23T16:22:58.091Z,11.00
2023-02-23T16:25:28.017Z,10.90
2023-02-23T16:28:16.180Z,10.80
2023-02-23T16:31:02.592Z,10.70
2023-02-23T16:33:42.628Z,10.70
2023-02-23T16:36:20.828Z,10.80
2023-02-23T16:39:04.353Z,10.80
2023-02-23T16:41:34.510Z,10.80
2023-02-23T16:44:05.105Z,10.80
2023-02-23T16:47:11.317Z,10.90
2023-02-23T16:49:38.352Z,10.90
2023-02-23T16:52:17.693Z,10.90
2023-02-23T16:54:47.373Z,10.90
2023-02-23T16:57:39.786Z,10.90
2023-02-23T17:00:14.486Z,10.90
2023-02-23T17:02:42.112Z,10.90
2023-02-23T17:05:20.194Z,10.90
2023-02-23T17:07:48.557Z,10.90
2023-02-23T17:10:25.926Z,10.90
2023-02-23T17:13:04.408Z,10.80
2023-02-23T17:15:47.921Z,10.80
2023-02-23T17:18:14.939Z,10.80
2023-02-23T17:20:41.718Z,10.80
2023-02-23T17:23:08.517Z,10.70
2023-02-23T17:25:35.608Z,10.70
2023-02-23T17:28:03.678Z,10.70
2023-02-23T17:30:31.241Z,10.70
2023-02-23T17:32:59.386Z,10.70
2023-02-23T17:35:26.826Z,10.60
2023-02-23T17:37:54.326Z,10.60
2023-02-23T17:40:28.930Z,10.60
2023-02-23T17:42:58.273Z,10.60
2023-02-23T17:45:26.596Z,10.70
2023-02-23T17:47:54.062Z,10.60
2023-02-23T17:50:22.120Z,10.60
2023-02-23T17:52:50.200Z,10.60
2023-02-23T17:55:18.575Z,10.60
2023-02-23T17:57:45.977Z,10.50
2023-02-23T18:00:15.309Z,10.50
2023-02-23T18:02:44.118Z,10.30
2023-02-23T18:05:12.429Z,10.10
2023-02-23T18:07:39.487Z,10.00
2023-02-23T18:10:07.312Z,10.10
2023-02-23T18:12:35.054Z,10.10
2023-02-23T18:15:02.098Z,10.10
2023-02-23T18:17:28.903Z,10.20
2023-02-23T18:19:55.946Z,10.30
2023-02-23T18:22:22.696Z,10.30
2023-02-23T18:24:49.489Z,10.30
2023-02-23T18:27:16.405Z,10.10
2023-02-23T18:29:43.194Z,9.90
2023-02-23T18:32:12.146Z,9.80
2023-02-23T18:34:39.022Z,9.90
2023-02-23T18:37:09.804Z,9.80
2023-02-23T18:39:36.816Z,9.80
2023-02-23T18:42:04.442Z,9.90
2023-02-23T18:44:33.457Z,9.90
2023-02-23T18:47:02.374Z,9.90
2023-02-23T18:49:29.232Z,10.00
2023-02-23T18:51:56.137Z,10.00
2023-02-23T18:54:25.823Z,10.00
2023-02-23T18:56:52.683Z,10.00
2023-02-23T18:59:19.464Z,10.00
2023-02-23T19:01:47.920Z,10.00
2023-02-23T19:04:15.090Z,10.10
2023-02-23T19:06:45.085Z,10.10
2023-02-23T19:09:14.254Z,10.10
2023-02-23T19:11:43.242Z,10.10
2023-02-23T19:14:16.593Z,10.00
2023-02-23T19:16:44.230Z,10.00
2023-02-23T19:19:11.173Z,10.00
2023-02-23T19:21:38.558Z,10.00
2023-02-23T19:24:07.043Z,10.00
2023-02-23T19:26:39.835Z,10.00
2023-02-23T19:29:07.122Z,9.90
2023-02-23T19:31:34.818Z,9.90
2023-02-23T19:34:04.887Z,9.90
2023-02-23T19:36:34.305Z,9.90
2023-02-23T19:39:12.729Z,9.80
2023-02-23T19:41:40.230Z,9.80
2023-02-23T19:44:07.274Z,9.50
2023-02-23T19:46:34.917Z,9.40
2023-02-23T19:49:01.804Z,9.30
2023-02-23T19:51:28.815Z,9.40
2023-02-23T19:53:58.561Z,9.30
2023-02-23T19:56:27.848Z,9.30
2023-02-23T19:58:56.426Z,9.20
2023-02-23T20:01:27.406Z,9.10
2023-02-23T20:03:56.617Z,9.10
2023-02-23T20:06:25.915Z,9.10
2023-02-23T20:08:55.011Z,9.10
2023-02-23T20:11:22.627Z,9.20
2023-02-23T20:13:53.014Z,9.10
2023-02-23T20:16:20.898Z,9.20
2023-02-23T20:18:47.855Z,9.20
2023-02-23T20:21:17.946Z,9.20
2023-02-23T20:23:46.918Z,9.30
2023-02-23T20:26:26.019Z,8.90
2023-02-23T20:28:57.429Z,8.70
2023-02-23T20:31:29.146Z,8.70
2023-02-23T20:33:58.473Z,8.70
2023-02-23T20:36:25.458Z,8.60
2023-02-23T20:38:52.595Z,8.70
2023-02-23T20:41:20.065Z,8.60
2023-02-23T20:43:47.302Z,8.70
2023-02-23T20:46:16.988Z,8.60
2023-02-23T20:48:44.178Z,8.60
2023-02-23T20:51:15.065Z,8.60
2023-02-23T20:53:46.592Z,8.60
2023-02-23T20:56:16.758Z,8.60
2023-02-23T20:58:44.521Z,8.50
2023-02-23T21:01:20.786Z,8.60
2023-02-23T21:03:51.147Z,8.60
2023-02-23T21:06:20.712Z,8.60
2023-02-23T21:08:48.845Z,8.50
2023-02-23T21:11:18.075Z,8.50
2023-02-23T21:13:45.972Z,8.50
2023-02-23T21:16:16.671Z,8.40
2023-02-23T21:18:44.058Z,8.40
2023-02-23T21:21:11.683Z,8.40
2023-02-23T21:23:43.346Z,8.40
2023-02-23T21:26:13.399Z,8.50
2023-02-23T21:28:49.233Z,8.50
2023-02-23T21:31:16.408Z,8.40
2023-02-23T21:33:44.164Z,8.50
2023-02-23T21:36:12.467Z,8.50
2023-02-23T21:38:43.155Z,8.40
2023-02-23T21:41:13.232Z,8.40
2023-02-23T21:43:42.414Z,8.40
2023-02-23T21:46:12.951Z,8.40
2023-02-23T21:48:40.028Z,8.30
2023-02-23T21:51:11.417Z,8.40
2023-02-23T21:53:39.087Z,8.40
2023-02-23T21:56:16.493Z,8.40
2023-02-23T21:58:51.674Z,8.30
2023-02-23T22:01:26.431Z,8.30
2023-02-23T22:03:54.967Z,8.20
2023-02-23T22:06:26.061Z,8.20
2023-02-23T22:08:53.491Z,8.10
2023-02-23T22:11:24.881Z,8.20
2023-02-23T22:13:59.265Z,8.20
2023-02-23T22:16:33.480Z,8.20
2023-02-23T22:19:04.041Z,8.30
2023-02-23T22:21:34.076Z,8.20
2023-02-23T22:24:05.252Z,8.20
2023-02-23T22:26:38.060Z,8.20
2023-02-23T22:29:06.801Z,8.20
2023-02-23T22:31:34.114Z,8.10
2023-02-23T22:34:01.174Z,8.10
2023-02-23T22:36:29.163Z,8.10
2023-02-23T22:38:59.716Z,8.00
2023-02-23T22:41:30.753Z,8.10
2023-02-23T22:43:58.077Z,8.10
2023-02-23T22:46:26.128Z,8.10
2023-02-23T22:48:53.405Z,8.10
2023-02-23T22:51:20.932Z,8.10
2023-02-23T22:53:48.012Z,8.10
2023-02-23T22:56:14.991Z,8.10
2023-02-23T22:58:42.216Z,8.20
2023-02-23T23:01:11.663Z,8.20
2023-02-23T23:03:46.154Z,8.30
2023-02-23T23:06:22.396Z,8.30
2023-02-23T23:08:52.190Z,8.30
2023-02-23T23:11:23.493Z,8.40
2023-02-23T23:13:54.592Z,8.40
2023-02-23T23:16:32.001Z,8.40
2023-02-23T23:19:12.080Z,8.40
2023-02-23T23:21:41.494Z,8.40
2023-02-23T23:24:13.112Z,8.40
2023-02-23T23:26:41.173Z,8.40
2023-02-23T23:29:13.045Z,8.40
2023-02-23T23:31:45.525Z,8.30
2023-02-23T23:34:16.371Z,8.40
2023-02-23T23:36:49.260Z,8.40
2023-02-23T23:39:18.090Z,8.40
2023-02-23T23:41:48.886Z,8.40
2023-02-23T23:44:24.901Z,8.30
2023-02-23T23:46:53.039Z,8.30
2023-02-23T23:49:25.772Z,8.40
2023-02-23T23:51:58.893Z,8.40
2023-02-23T23:54:31.561Z,8.40
2023-02-23T23:57:04.278Z,8.30
2023-02-23T23:59:32.567Z,8.30
